Time;durP1;ratioP1;P1;durP2;ratioP2;P2;SDS_P1;SDS_P2;PMS_P1;PMS_P2;Temp;Humidity;BMP_temperature;BMP_pressure;BME280_temperature;BME280_humidity;BME280_pressure;Samples;Min_cycle;Max_cycle;Signal;HPM_P1;HPM_P2
2023/02/07 00:00:37;;;;;;;12.60;4.65;;;;;;;-3.65;61.68;95175.94;5105820;28;20012;-86
2023/02/07 00:03:03;;;;;;;11.32;4.88;;;;;;;-3.60;61.69;95173.56;5104483;28;20249;-86
2023/02/07 00:05:28;;;;;;;10.77;4.68;;;;;;;-3.56;61.57;95174.78;5105333;28;20098;-86
2023/02/07 00:07:54;;;;;;;9.98;4.50;;;;;;;-3.52;61.33;95169.97;5105309;28;20061;-85
2023/02/07 00:10:20;;;;;;;9.43;4.72;;;;;;;-3.51;61.55;95176.81;5104085;28;20334;-86
2023/02/07 00:12:45;;;;;;;11.07;4.07;;;;;;;-3.47;61.93;95184.03;5105523;28;20012;-87
2023/02/07 00:15:11;;;;;;;9.05;3.92;;;;;;;-3.41;61.91;95185.09;5105344;28;20016;-88
2023/02/07 00:17:36;;;;;;;6.65;3.38;;;;;;;-3.44;61.86;95193.28;5105402;28;20026;-87
2023/02/07 00:20:04;;;;;;;8.35;4.57;;;;;;;-3.44;59.90;95188.06;5105325;28;20022;-88
2023/02/07 00:22:30;;;;;;;12.73;5.68;;;;;;;-3.49;60.35;95196.47;5105045;28;20016;-87
2023/02/07 00:24:55;;;;;;;14.32;6.07;;;;;;;-3.47;61.26;95204.09;5105404;28;20023;-87
2023/02/07 00:27:21;;;;;;;16.90;5.95;;;;;;;-3.48;60.84;95202.47;5105239;28;20019;-86
2023/02/07 00:29:46;;;;;;;10.57;4.57;;;;;;;-3.48;61.09;95205.09;5105239;28;20039;-88
2023/02/07 00:32:12;;;;;;;10.82;5.55;;;;;;;-3.49;61.82;95212.09;5104997;28;20313;-87
2023/02/07 00:34:37;;;;;;;12.73;5.60;;;;;;;-3.47;62.18;95210.13;5105023;28;20072;-87
2023/02/07 00:37:03;;;;;;;16.35;5.70;;;;;;;-3.47;62.32;95202.28;5104919;28;20318;-86
2023/02/07 00:39:29;;;;;;;15.52;6.72;;;;;;;-3.43;61.90;95203.50;5103702;28;20089;-85
2023/02/07 00:41:55;;;;;;;19.13;7.20;;;;;;;-3.38;62.61;95220.38;5104959;28;20341;-86
2023/02/07 00:44:20;;;;;;;19.33;7.65;;;;;;;-3.39;62.42;95216.97;5104732;28;20019;-85
2023/02/07 00:46:46;;;;;;;25.15;8.48;;;;;;;-3.39;61.89;95210.97;5104527;28;20036;-86
2023/02/07 00:49:11;;;;;;;19.15;7.05;;;;;;;-3.39;61.42;95222.19;5105061;28;20016;-90
2023/02/07 00:51:36;;;;;;;17.27;6.63;;;;;;;-3.38;61.75;95215.16;5104050;28;20056;-90
2023/02/07 00:54:03;;;;;;;16.60;7.32;;;;;;;-3.36;61.40;95216.56;5104441;28;20027;-91
2023/02/07 00:56:29;;;;;;;20.65;7.20;;;;;;;-3.33;61.74;95215.41;5105545;28;20040;-92
2023/02/07 00:58:55;;;;;;;20.05;6.57;;;;;;;-3.36;59.98;95213.16;5105421;28;20028;-91
2023/02/07 01:01:23;;;;;;;11.27;5.57;;;;;;;-3.38;60.16;95213.34;5104222;28;20381;-89
2023/02/07 01:03:49;;;;;;;15.40;6.43;;;;;;;-3.40;59.95;95210.13;5105396;28;20035;-91
2023/02/07 01:06:14;;;;;;;12.63;6.10;;;;;;;-3.39;60.00;95200.53;5105158;28;20028;-90
2023/02/07 01:08:40;;;;;;;21.38;7.30;;;;;;;-3.41;59.95;95203.34;5105296;28;20028;-90
2023/02/07 01:11:09;;;;;;;16.25;5.72;;;;;;;-3.45;60.38;95210.72;5104275;28;20099;-90
2023/02/07 01:13:35;;;;;;;14.82;6.03;;;;;;;-3.38;60.66;95204.75;5104953;28;20091;-90
2023/02/07 01:16:01;;;;;;;15.25;6.20;;;;;;;-3.37;60.97;95204.56;5105020;28;20032;-89
2023/02/07 01:18:26;;;;;;;14.80;5.55;;;;;;;-3.38;61.06;95197.72;5103643;28;20061;-83
2023/02/07 01:20:52;;;;;;;9.38;5.20;;;;;;;-3.39;60.96;95200.53;5103916;28;20024;-82
2023/02/07 01:23:18;;;;;;;14.00;4.93;;;;;;;-3.35;60.61;95197.34;5103864;28;20073;-82
2023/02/07 01:25:45;;;;;;;11.00;4.90;;;;;;;-3.34;61.13;95200.75;5103777;28;20101;-82
2023/02/07 01:28:11;;;;;;;12.65;6.38;;;;;;;-3.29;61.44;95195.78;5103937;28;20020;-83
2023/02/07 01:30:43;;;;;;;13.20;4.65;;;;;;;-3.28;60.07;95192.16;5104036;28;20016;-82
2023/02/07 01:33:09;;;;;;;;;;;;;;;-3.32;59.98;95191.72;5103013;28;20047;-82
2023/02/07 01:35:36;;;;;;;9.65;4.80;;;;;;;-3.36;60.14;95184.50;5103756;28;19926;-83
2023/02/07 01:38:02;;;;;;;9.98;4.32;;;;;;;-3.36;60.26;95182.69;5103640;28;20062;-82
2023/02/07 01:40:29;;;;;;;11.60;5.28;;;;;;;-3.36;60.43;95180.06;5103552;28;20222;-83
2023/02/07 01:42:56;;;;;;;12.13;4.63;;;;;;;-3.32;60.75;95175.28;5103554;28;20016;-83
2023/02/07 01:45:22;;;;;;;7.82;4.15;;;;;;;-3.31;60.70;95171.69;5103671;28;20020;-83
2023/02/07 01:47:47;;;;;;;7.30;3.85;;;;;;;-3.36;60.76;95176.66;5103484;28;20035;-82
2023/02/07 01:50:13;;;;;;;9.30;4.15;;;;;;;-3.36;60.40;95174.88;5102051;28;20023;-82
2023/02/07 01:52:40;;;;;;;10.98;5.38;;;;;;;-3.35;60.70;95165.25;5103615;28;20337;-83
2023/02/07 01:55:13;;;;;;;8.20;4.50;;;;;;;-3.34;60.87;95174.69;5103667;28;20020;-84
2023/02/07 01:57:39;;;;;;;9.30;4.47;;;;;;;-3.35;61.17;95167.88;5103354;28;20015;-84
2023/02/07 02:00:07;;;;;;;9.20;3.92;;;;;;;-3.35;61.07;95173.09;5102273;28;20046;-83
2023/02/07 02:02:35;;;;;;;10.30;4.70;;;;;;;-3.45;60.96;95176.84;5103229;28;20031;-83
2023/02/07 02:05:05;;;;;;;12.65;5.70;;;;;;;-3.44;61.31;95175.84;5102674;28;20315;-84
2023/02/07 02:07:31;;;;;;;12.77;5.18;;;;;;;-3.47;61.44;95172.81;5103078;28;20102;-84
2023/02/07 02:09:59;;;;;;;11.75;5.38;;;;;;;-3.49;61.14;95188.66;5102033;28;20323;-84
2023/02/07 02:12:36;;;;;;;11.18;5.22;;;;;;;-3.49;61.05;95178.22;5103064;28;20024;-83
2023/02/07 02:15:18;;;;;;;10.32;4.40;;;;;;;-3.51;61.45;95180.22;5103155;28;20024;-84
2023/02/07 02:18:11;;;;;;;10.40;5.50;;;;;;;-3.53;61.21;95178.81;5103139;28;20052;-84
2023/02/07 02:20:49;;;;;;;10.70;4.75;;;;;;;-3.57;61.42;95183.59;5103272;28;20031;-84
2023/02/07 02:23:17;;;;;;;13.15;5.75;;;;;;;-3.59;61.84;95177.75;5102982;28;20024;-84
2023/02/07 02:26:18;;;;;;;12.98;4.60;;;;;;;-3.59;62.21;95174.38;5103046;28;20030;-89
2023/02/07 02:29:01;;;;;;;12.60;5.53;;;;;;;-3.59;61.92;95185.59;5081172;28;20032;-89
2023/02/07 02:31:42;;;;;;;11.13;4.72;;;;;;;-3.59;62.67;95188.19;5103314;28;20042;-88
2023/02/07 02:34:36;;;;;;;10.68;4.80;;;;;;;-3.56;62.66;95198.25;5103469;28;20059;-88
2023/02/07 02:37:34;;;;;;;12.15;4.50;;;;;;;-3.59;62.84;95179.56;5087888;28;20353;-88
2023/02/07 02:40:03;;;;;;;10.73;5.20;;;;;;;-3.59;62.68;95185.59;5102184;28;20318;-88
2023/02/07 02:42:38;;;;;;;12.07;5.22;;;;;;;-3.57;63.00;95194.00;5103167;28;20330;-87
2023/02/07 02:45:12;;;;;;;11.30;4.30;;;;;;;-3.56;62.96;95195.63;5102633;28;20054;-90
2023/02/07 02:47:41;;;;;;;10.98;4.97;;;;;;;-3.57;63.01;95195.81;5103664;28;20387;-89
2023/02/07 02:50:12;;;;;;;9.18;4.55;;;;;;;-3.57;63.17;95188.00;5103625;28;20024;-91
2023/02/07 02:52:38;;;;;;;11.97;4.90;;;;;;;-3.55;63.82;95194.63;5103390;28;20023;-88
2023/02/07 02:55:03;;;;;;;9.63;5.07;;;;;;;-3.54;63.58;95198.84;5102319;28;20463;-89
2023/02/07 02:57:50;;;;;;;13.40;4.82;;;;;;;-3.58;63.31;95205.44;5103438;28;20312;-90
2023/02/07 03:00:27;;;;;;;9.70;4.30;;;;;;;-3.64;62.74;95203.63;5103405;28;20052;-90
2023/02/07 03:03:12;;;;;;;14.05;4.78;;;;;;;-3.63;63.13;95202.59;5102085;28;20341;-88
2023/02/07 03:06:02;;;;;;;10.68;5.22;;;;;;;-3.64;63.59;95204.41;5103390;28;20083;-90
2023/02/07 03:08:34;;;;;;;8.80;4.25;;;;;;;-3.62;63.91;95206.84;5103345;28;20372;-90
2023/02/07 03:11:21;;;;;;;9.07;4.65;;;;;;;-3.64;63.95;95208.81;5102657;28;20024;-88
2023/02/07 03:14:08;;;;;;;10.80;4.53;;;;;;;-3.68;63.13;95210.22;5103019;28;20023;-89
2023/02/07 03:16:47;;;;;;;10.52;4.13;;;;;;;-3.77;62.10;95208.72;5106827;28;20047;-89
2023/02/07 03:19:34;;;;;;;9.10;4.63;;;;;;;-3.93;61.63;95210.66;5106803;28;20020;-88
2023/02/07 03:22:09;;;;;;;7.50;3.72;;;;;;;-3.98;61.79;95209.59;5106891;28;20127;-89
2023/02/07 03:24:40;;;;;;;9.05;4.75;;;;;;;-4.03;62.51;95210.97;5106963;28;20082;-89
2023/02/07 03:27:08;;;;;;;9.52;4.40;;;;;;;-4.06;62.56;95211.34;5106724;28;20027;-89
2023/02/07 03:29:36;;;;;;;7.97;3.78;;;;;;;-4.09;62.87;95213.50;5106961;28;20050;-89
2023/02/07 03:32:05;;;;;;;10.55;4.50;;;;;;;-4.13;62.99;95214.88;5106738;28;20024;-89
2023/02/07 03:34:51;;;;;;;11.02;5.20;;;;;;;-4.09;63.35;95213.50;5106977;28;20027;-90
2023/02/07 03:37:41;;;;;;;9.38;4.00;;;;;;;-4.10;62.23;95204.88;5105926;28;20028;-90
2023/02/07 03:40:08;;;;;;;9.43;4.35;;;;;;;-4.14;62.50;95208.88;5107146;28;20012;-86
2023/02/07 03:42:47;;;;;;;11.10;5.05;;;;;;;-4.10;62.59;95214.50;5106389;28;20043;-86
2023/02/07 03:45:16;;;;;;;8.73;4.60;;;;;;;-3.99;63.44;95211.38;5106219;28;20047;-86
2023/02/07 03:47:42;;;;;;;11.63;4.88;;;;;;;-3.93;64.50;95210.66;5105833;28;20382;-86
2023/02/07 03:50:08;;;;;;;10.18;4.80;;;;;;;-3.89;64.94;95206.66;5104771;28;20058;-86
2023/02/07 03:52:33;;;;;;;11.38;5.28;;;;;;;-3.83;63.91;95211.13;5106094;28;20031;-86
2023/02/07 03:54:59;;;;;;;9.32;4.50;;;;;;;-3.78;63.26;95218.34;5105774;28;20023;-85
2023/02/07 03:57:24;;;;;;;12.25;5.10;;;;;;;-3.76;63.38;95213.75;5106100;28;20345;-88
2023/02/07 03:59:50;;;;;;;11.13;5.55;;;;;;;-3.73;62.62;95202.94;5105810;28;20051;-87
2023/02/07 04:02:15;;;;;;;10.73;5.47;;;;;;;-3.69;63.08;95206.78;5104809;28;20036;-88
2023/02/07 04:04:41;;;;;;;12.63;5.95;;;;;;;-3.64;63.32;95208.81;5105986;28;20095;-88
2023/02/07 04:07:06;;;;;;;12.85;5.95;;;;;;;-3.59;62.88;95211.66;5106202;28;20087;-88
2023/02/07 04:09:32;;;;;;;11.57;5.53;;;;;;;-3.55;62.59;95206.88;5105565;28;20207;-87
2023/02/07 04:11:57;;;;;;;15.88;6.03;;;;;;;-3.54;62.22;95214.50;5105823;28;20218;-88
2023/02/07 04:14:23;;;;;;;14.43;6.57;;;;;;;-3.57;61.62;95203.66;5105696;28;20245;-88
2023/02/07 04:16:49;;;;;;;12.75;5.97;;;;;;;-3.63;62.22;95206.00;5105879;28;20195;-88
2023/02/07 04:19:15;;;;;;;14.23;6.70;;;;;;;-3.68;62.41;95199.78;5105563;28;20027;-83
2023/02/07 04:21:41;;;;;;;12.55;5.85;;;;;;;-3.68;62.83;95200.56;5105125;28;20027;-82
2023/02/07 04:24:07;;;;;;;14.10;6.70;;;;;;;-3.70;62.57;95197.34;5105192;28;20024;-83
2023/02/07 04:26:33;;;;;;;11.75;5.80;;;;;;;-3.69;63.01;95200.75;5104134;28;20020;-83
2023/02/07 04:28:58;;;;;;;19.05;7.15;;;;;;;-3.74;62.92;95203.94;5105156;28;20056;-83
2023/02/07 04:31:24;;;;;;;22.05;8.75;;;;;;;-3.66;62.80;95205.59;5104965;28;20012;-82
2023/02/07 04:33:49;;;;;;;19.90;8.85;;;;;;;-3.65;63.12;95212.41;5105038;28;20020;-82
2023/02/07 04:36:15;;;;;;;20.17;9.68;;;;;;;-3.62;62.79;95204.22;5104784;28;20022;-83
2023/02/07 04:38:40;;;;;;;16.55;7.97;;;;;;;-3.59;63.16;95214.25;5104832;28;20031;-83
2023/02/07 04:41:06;;;;;;;16.25;7.43;;;;;;;-3.54;62.99;95211.88;5104934;28;20203;-85
2023/02/07 04:43:33;;;;;;;21.85;8.32;;;;;;;-3.52;63.20;95207.28;5104789;28;20020;-85
2023/02/07 04:45:59;;;;;;;17.23;7.43;;;;;;;-3.46;63.33;95210.91;5104513;28;20048;-85
2023/02/07 04:48:25;;;;;;;17.20;7.07;;;;;;;-3.45;63.35;95209.94;5104550;28;20016;-85
2023/02/07 04:50:50;;;;;;;16.60;6.65;;;;;;;-3.40;63.46;95214.56;5104527;28;20020;-85
2023/02/07 04:53:16;;;;;;;13.05;5.90;;;;;;;-3.37;63.27;95224.63;5104608;28;20021;-86
2023/02/07 04:55:41;;;;;;;8.73;4.07;;;;;;;-3.36;62.81;95221.00;5104485;28;20105;-85
2023/02/07 04:58:07;;;;;;;46.17;24.00;;;;;;;-3.34;63.07;95224.22;5104756;28;20022;-86
2023/02/07 05:00:33;;;;;;;23.02;12.43;;;;;;;-3.30;63.05;95225.44;5104674;28;20247;-83
2023/02/07 05:02:59;;;;;;;14.50;6.38;;;;;;;-3.32;62.67;95228.22;5104106;28;20200;-85
2023/02/07 05:05:24;;;;;;;10.00;5.35;;;;;;;-3.32;62.72;95225.63;5104406;28;20428;-85
2023/02/07 05:07:50;;;;;;;11.23;5.43;;;;;;;-3.28;62.53;95233.88;5104213;28;20016;-85
2023/02/07 05:10:15;;;;;;;9.68;4.63;;;;;;;-3.33;61.82;95237.06;5104251;28;20111;-84
2023/02/07 05:12:41;;;;;;;15.68;6.18;;;;;;;-3.36;61.61;95242.66;5104260;28;20057;-85
2023/02/07 05:15:07;;;;;;;11.50;5.13;;;;;;;-3.47;61.53;95236.19;5104203;28;20195;-84
2023/02/07 05:17:33;;;;;;;11.57;6.05;;;;;;;-3.54;61.35;95243.16;5104015;28;20264;-84
2023/02/07 05:20:00;;;;;;;9.88;4.93;;;;;;;-3.57;61.00;95256.56;5104143;28;20207;-86
2023/02/07 05:22:25;;;;;;;11.23;4.75;;;;;;;-3.65;61.31;95241.88;5104061;28;20044;-85
2023/02/07 05:24:51;;;;;;;8.73;4.38;;;;;;;-3.69;60.90;95247.66;5103912;28;20019;-85
2023/02/07 05:27:16;;;;;;;10.50;4.32;;;;;;;-3.69;61.13;95252.88;5103902;28;20043;-85
2023/02/07 05:29:42;;;;;;;8.77;4.68;;;;;;;-3.71;61.43;95240.03;5103957;28;20020;-89
2023/02/07 05:34:58;;;;;;;7.72;4.35;;;;;;;-3.73;61.60;95252.44;5104252;28;20380;-88
2023/02/07 05:37:24;;;;;;;11.02;4.90;;;;;;;-3.73;60.96;95259.47;5110555;28;20024;-87
2023/02/07 05:39:50;;;;;;;12.15;5.88;;;;;;;-3.74;61.33;95260.47;5114257;28;20016;-93
2023/02/07 05:42:15;;;;;;;10.88;5.30;;;;;;;-3.72;61.51;95263.69;5115290;28;20012;-88
2023/02/07 05:44:41;;;;;;;11.30;5.25;;;;;;;-3.77;60.83;95258.22;5102760;28;20020;-88
2023/02/07 05:47:06;;;;;;;10.73;5.47;;;;;;;-3.86;61.83;95258.38;5104112;28;20326;-88
2023/02/07 05:49:31;;;;;;;13.38;6.00;;;;;;;-4.00;62.13;95267.06;5103687;28;20032;-87
2023/02/07 05:51:57;;;;;;;14.32;6.53;;;;;;;-4.17;62.69;95273.53;5103519;28;20044;-88
2023/02/07 05:54:23;;;;;;;19.48;6.18;;;;;;;-4.32;63.01;95279.59;5102741;28;20065;-89
2023/02/07 05:56:48;;;;;;;14.77;7.07;;;;;;;-4.45;64.02;95282.09;5103882;28;20214;-84
2023/02/07 05:59:14;;;;;;;17.35;8.02;;;;;;;-4.56;64.24;95290.34;5103433;28;20012;-84
2023/02/07 06:01:39;;;;;;;15.95;8.02;;;;;;;-4.64;65.10;95281.69;5103698;28;20363;-89
2023/02/07 06:04:05;;;;;;;17.77;7.82;;;;;;;-4.66;65.95;95278.47;5103883;28;20016;-89
2023/02/07 06:06:30;;;;;;;15.30;7.82;;;;;;;-4.65;65.68;95281.88;5102328;28;20333;-88
2023/02/07 06:08:56;;;;;;;18.92;8.55;;;;;;;-4.64;65.50;95280.84;5103294;28;20087;-90
2023/02/07 06:11:21;;;;;;;18.30;7.68;;;;;;;-4.71;65.06;95278.19;5103744;28;20016;-88
2023/02/07 06:13:47;;;;;;;23.35;9.48;;;;;;;-4.76;65.71;95277.94;5103575;28;20027;-88
2023/02/07 06:16:12;;;;;;;20.30;9.63;;;;;;;-4.71;66.13;95280.78;5102322;28;20115;-87
2023/02/07 06:18:38;;;;;;;18.70;7.68;;;;;;;-4.72;66.06;95280.97;5101852;28;20254;-86
2023/02/07 06:21:04;;;;;;;22.77;9.10;;;;;;;-4.69;66.62;95284.03;5103336;28;20022;-86
2023/02/07 06:23:29;;;;;;;26.10;10.32;;;;;;;-4.66;66.34;95291.47;5103751;28;20019;-88
2023/02/07 06:25:55;;;;;;;16.48;8.10;;;;;;;-4.59;65.97;95288.94;5103345;28;20020;-87
2023/02/07 06:28:20;;;;;;;23.05;9.30;;;;;;;-4.61;65.90;95287.50;5103636;28;20039;-90
2023/02/07 06:30:46;;;;;;;22.25;8.32;;;;;;;-4.60;65.37;95302.91;5103670;28;20021;-90
2023/02/07 06:33:11;;;;;;;22.52;8.68;;;;;;;-4.58;65.62;95300.16;5103720;28;20046;-89
2023/02/07 06:35:38;;;;;;;17.58;8.60;;;;;;;-4.59;65.85;95304.53;5103964;28;20016;-89
2023/02/07 06:38:03;;;;;;;19.02;8.98;;;;;;;-4.60;65.82;95307.31;5103578;28;20038;-89
2023/02/07 06:40:29;;;;;;;21.27;9.93;;;;;;;-4.60;65.76;95307.31;5102284;28;20326;-87
2023/02/07 06:42:54;;;;;;;21.27;9.00;;;;;;;-4.57;65.57;95312.97;5102877;28;20027;-88
2023/02/07 06:45:20;;;;;;;24.52;10.25;;;;;;;-4.57;65.28;95314.78;5102704;28;20062;-85
2023/02/07 06:47:45;;;;;;;27.50;10.27;;;;;;;-4.67;65.08;95312.47;5102605;28;20334;-85
2023/02/07 06:50:11;;;;;;;23.58;9.80;;;;;;;-4.64;65.39;95315.50;5104261;28;20027;-85
2023/02/07 06:52:36;;;;;;;26.27;11.10;;;;;;;-4.59;65.19;95314.16;5105668;28;20019;-87
2023/02/07 06:55:02;;;;;;;19.33;9.23;;;;;;;-4.60;64.32;95308.13;5106724;28;20095;-87
2023/02/07 06:57:27;;;;;;;26.10;8.85;;;;;;;-4.64;64.46;95310.31;5106888;28;20023;-85
2023/02/07 06:59:53;;;;;;;22.75;9.70;;;;;;;-4.67;64.00;95315.88;5106509;28;20043;-84
2023/02/07 07:02:18;;;;;;;30.55;9.95;;;;;;;-4.70;64.19;95324.06;5106960;28;20020;-87
2023/02/07 07:04:44;;;;;;;23.27;9.95;;;;;;;-4.69;64.24;95320.44;5106675;28;20023;-86
2023/02/07 07:07:10;;;;;;;29.42;10.95;;;;;;;-4.70;64.23;95311.03;5106839;28;20038;-86
2023/02/07 07:09:35;;;;;;;22.65;9.93;;;;;;;-4.70;63.92;95318.84;5105440;28;20100;-86
2023/02/07 07:12:01;;;;;;;17.88;8.68;;;;;;;-4.65;63.23;95319.09;5106323;28;20023;-81
2023/02/07 07:14:26;;;;;;;21.50;8.88;;;;;;;-4.61;62.92;95316.94;5106607;28;20032;-79
2023/02/07 07:16:51;;;;;;;20.10;9.23;;;;;;;-4.61;62.63;95318.75;5106440;28;20268;-82
2023/02/07 07:19:17;;;;;;;20.08;8.90;;;;;;;-4.55;62.45;95315.41;5106291;28;20030;-82
2023/02/07 07:21:43;;;;;;;19.88;8.75;;;;;;;-4.53;62.53;95319.44;5106439;28;20028;-79
2023/02/07 07:24:08;;;;;;;26.13;10.63;;;;;;;-4.51;62.22;95316.66;5106405;28;20027;-75
2023/02/07 07:26:34;;;;;;;21.90;8.95;;;;;;;-4.50;62.42;95319.06;5106485;28;20207;-78
2023/02/07 07:28:59;;;;;;;19.60;9.63;;;;;;;-4.37;66.64;95313.19;5106102;28;20024;-84
2023/02/07 07:31:26;;;;;;;20.15;9.00;;;;;;;-4.35;62.24;95320.84;5105157;28;20024;-79
2023/02/07 07:33:55;;;;;;;14.32;8.00;;;;;;;-4.36;61.32;95317.41;5106075;28;20066;-82
2023/02/07 07:36:20;;;;;;;27.63;10.23;;;;;;;-4.25;59.37;95319.53;5106399;28;20020;-80
2023/02/07 07:38:46;;;;;;;32.88;9.05;;;;;;;-4.23;59.86;95308.94;5105715;28;20070;-81
2023/02/07 07:41:11;;;;;;;18.13;8.15;;;;;;;-4.20;59.75;95312.97;5105961;28;20028;-80
2023/02/07 07:43:37;;;;;;;23.95;10.05;;;;;;;-4.20;59.75;95311.16;5105969;28;20027;-79
2023/02/07 07:46:03;;;;;;;23.70;8.68;;;;;;;-4.20;60.43;95298.13;5104565;28;20235;-80
2023/02/07 07:48:28;;;;;;;21.38;9.52;;;;;;;-4.18;60.00;95309.19;5104900;28;20265;-81
2023/02/07 07:50:54;;;;;;;24.13;9.77;;;;;;;-4.20;59.81;95313.75;5104907;28;20043;-81
2023/02/07 07:53:20;;;;;;;16.48;7.55;;;;;;;-4.17;59.78;95307.38;5105233;28;20028;-79
2023/02/07 07:55:53;;;;;;;18.65;8.68;;;;;;;-4.15;59.46;95310.59;5105652;28;20031;-78
2023/02/07 07:58:19;;;;;;;21.25;9.38;;;;;;;-4.13;59.56;95308.63;5105434;28;20020;-78
2023/02/07 08:00:46;;;;;;;25.75;8.32;;;;;;;-4.06;59.37;95314.69;5104956;28;20310;-78
2023/02/07 08:03:12;;;;;;;18.42;8.40;;;;;;;-4.07;58.86;95315.69;5104004;28;20318;-78
2023/02/07 08:05:38;;;;;;;16.02;7.82;;;;;;;-4.12;59.29;95310.25;5105405;28;20105;-78
2023/02/07 08:08:04;;;;;;;23.23;9.60;;;;;;;-4.07;59.63;95319.13;5105403;28;20039;-79
2023/02/07 08:10:29;;;;;;;21.40;9.30;;;;;;;-4.02;59.89;95310.72;5105438;28;20032;-79
2023/02/07 08:12:56;;;;;;;21.13;9.70;;;;;;;-3.98;58.95;95311.97;5105335;28;20023;-79
2023/02/07 08:15:23;;;;;;;19.15;8.63;;;;;;;-3.94;59.41;95307.19;5104971;28;20024;-78
2023/02/07 08:17:48;;;;;;;25.77;9.40;;;;;;;-3.81;59.45;95311.72;5103773;28;20020;-78
2023/02/07 08:20:13;;;;;;;25.40;10.55;;;;;;;-3.84;59.42;95313.69;5103867;28;20091;-79
2023/02/07 08:22:39;;;;;;;21.75;10.45;;;;;;;-3.80;59.38;95318.56;5103584;28;20072;-79
2023/02/07 08:25:05;;;;;;;23.25;11.07;;;;;;;-3.76;59.57;95304.16;5103907;28;20031;-78
2023/02/07 08:27:31;;;;;;;26.58;9.50;;;;;;;-3.60;58.81;95316.91;5103559;28;20065;-79
2023/02/07 08:29:56;;;;;;;20.80;9.15;;;;;;;-3.56;58.92;95315.53;5102130;28;20032;-78
2023/02/07 08:32:22;;;;;;;17.85;8.20;;;;;;;-3.47;58.86;95303.97;5104505;28;20086;-78
2023/02/07 08:34:47;;;;;;;18.30;8.95;;;;;;;-3.42;58.38;95308.59;5105085;28;20085;-79
2023/02/07 08:37:13;;;;;;;22.33;9.55;;;;;;;-3.44;58.06;95306.19;5104939;28;20024;-79
2023/02/07 08:39:38;;;;;;;17.52;8.77;;;;;;;-3.42;57.98;95303.38;5104956;28;20257;-79
2023/02/07 08:42:06;;;;;;;29.50;10.02;;;;;;;-3.34;58.39;95305.03;5103696;28;20028;-78
2023/02/07 08:44:32;;;;;;;16.70;8.05;;;;;;;-3.26;57.21;95299.69;5103525;28;20047;-79
2023/02/07 08:46:58;;;;;;;16.48;8.82;;;;;;;-3.29;56.29;95298.25;5104694;28;20242;-78
2023/02/07 08:49:23;;;;;;;18.38;8.82;;;;;;;-3.24;56.20;95298.50;5104515;28;20027;-78
2023/02/07 08:51:49;;;;;;;18.58;7.93;;;;;;;-3.30;55.89;95295.84;5104514;28;20051;-78
2023/02/07 08:54:14;;;;;;;19.27;8.25;;;;;;;-3.25;56.59;95307.31;5104577;28;20069;-79
2023/02/07 08:56:40;;;;;;;18.58;8.85;;;;;;;-3.14;56.63;95307.78;5104685;28;20016;-78
2023/02/07 08:59:05;;;;;;;21.35;10.02;;;;;;;-3.12;56.69;95303.16;5104732;28;20090;-79
2023/02/07 09:01:31;;;;;;;23.30;8.82;;;;;;;-3.04;56.97;95301.22;5104309;28;20310;-79
2023/02/07 09:03:57;;;;;;;16.10;7.25;;;;;;;-2.98;57.04;95306.66;5104444;28;20031;-78
2023/02/07 09:06:23;;;;;;;16.50;8.10;;;;;;;-2.94;56.39;95313.91;5104640;28;20020;-78
2023/02/07 09:08:49;;;;;;;19.75;8.63;;;;;;;-3.09;55.44;95310.63;5104422;28;20020;-78
2023/02/07 09:11:15;;;;;;;15.23;8.10;;;;;;;-3.10;56.17;95309.00;5104318;28;20020;-78
2023/02/07 09:13:44;;;;;;;20.27;9.23;;;;;;;-3.10;55.63;95309.00;5103594;28;20023;-78
2023/02/07 09:16:10;;;;;;;18.42;7.60;;;;;;;-3.10;54.83;95309.81;5104469;28;20311;-78
2023/02/07 09:18:36;;;;;;;26.55;8.60;;;;;;;-3.14;55.49;95300.75;5104355;28;20019;-78
2023/02/07 09:21:01;;;;;;;22.67;8.43;;;;;;;-3.08;55.75;95313.03;5104107;28;20318;-78
2023/02/07 09:23:27;;;;;;;16.17;8.38;;;;;;;-3.08;55.66;95312.22;5104112;28;20195;-79
2023/02/07 09:25:52;;;;;;;12.00;7.18;;;;;;;-3.09;55.22;95327.06;5103729;28;20031;-78
2023/02/07 09:28:21;;;;;;;29.90;6.63;;;;;;;-3.20;55.06;95317.16;5103860;28;20035;-78
2023/02/07 09:30:46;;;;;;;16.10;7.05;;;;;;;-3.21;56.53;95315.56;5104035;28;20252;-78
2023/02/07 09:33:13;;;;;;;15.30;7.18;;;;;;;-3.13;55.85;95325.84;5103789;28;20015;-78
2023/02/07 09:35:42;;;;;;;14.48;6.30;;;;;;;-3.14;56.44;95324.22;5103698;28;20020;-78
2023/02/07 09:38:12;;;;;;;13.57;6.45;;;;;;;-3.10;55.41;95314.22;5103946;28;20023;-78
2023/02/07 09:40:38;;;;;;;12.88;6.35;;;;;;;-3.16;54.43;95318.41;5103837;28;20020;-78
2023/02/07 09:43:34;;;;;;;13.25;6.20;;;;;;;-2.98;54.42;95312.69;5103922;28;20028;-78
2023/02/07 09:46:23;;;;;;;12.07;5.13;;;;;;;-2.84;53.95;95313.56;5102230;28;20092;-78
2023/02/07 09:49:13;;;;;;;12.35;6.00;;;;;;;-2.58;54.78;95304.25;5103524;28;20037;-78
2023/02/07 09:51:40;;;;;;;7.95;3.80;;;;;;;-2.50;51.87;95306.69;5103292;28;20030;-78
2023/02/07 09:54:19;;;;;;;9.98;4.22;;;;;;;-2.45;51.45;95293.81;5103666;28;20056;-79
2023/02/07 09:56:46;;;;;;;8.52;4.43;;;;;;;-2.35;50.80;95291.66;5103492;28;20248;-78
2023/02/07 09:59:26;;;;;;;11.10;4.65;;;;;;;-2.38;50.06;95288.63;5103347;28;20057;-78
2023/02/07 10:01:57;;;;;;;10.82;4.72;;;;;;;-2.32;50.82;95288.66;5103370;28;20020;-78
2023/02/07 10:04:40;;;;;;;14.50;5.65;;;;;;;-2.17;51.24;95292.91;5102368;28;20294;-78
2023/02/07 10:07:06;;;;;;;11.85;5.55;;;;;;;-2.12;51.04;95280.03;5103572;28;20020;-78
2023/02/07 10:09:37;;;;;;;13.88;5.47;;;;;;;-2.03;50.25;95279.66;5103409;28;20039;-78
2023/02/07 10:12:47;;;;;;;13.60;6.30;;;;;;;-1.97;50.73;95278.06;5103219;28;20218;-78
2023/02/07 10:15:32;;;;;;;11.70;5.63;;;;;;;-2.16;51.34;95277.00;5103062;28;20276;-78
2023/02/07 10:18:13;;;;;;;15.70;6.63;;;;;;;-2.05;52.10;95271.22;5103232;28;20395;-78
2023/02/07 10:20:47;;;;;;;12.70;6.93;;;;;;;-2.18;51.90;95262.53;5103234;28;20023;-78
2023/02/07 10:23:24;;;;;;;28.85;8.77;;;;;;;-2.16;52.84;95268.38;5103024;28;20016;-78
2023/02/07 10:26:08;;;;;;;18.02;7.95;;;;;;;-2.56;52.92;95260.47;5102488;28;20091;-78
2023/02/07 10:28:57;;;;;;;15.98;6.85;;;;;;;-2.61;53.33;95258.44;5101768;28;20028;-78
2023/02/07 10:31:24;;;;;;;15.75;7.72;;;;;;;-2.69;54.63;95259.41;5103050;28;20024;-78
2023/02/07 10:33:57;;;;;;;18.58;8.32;;;;;;;-2.79;54.58;95251.13;5102928;28;20024;-78
2023/02/07 10:36:23;;;;;;;21.02;9.10;;;;;;;-2.74;56.17;95261.00;5103149;28;20012;-78
2023/02/07 10:39:03;;;;;;;19.25;7.80;;;;;;;-2.72;53.92;95259.00;5102967;28;20016;-78
2023/02/07 10:41:34;;;;;;;15.07;7.97;;;;;;;-2.69;53.50;95259.41;5102872;28;20028;-78
2023/02/07 10:44:00;;;;;;;18.58;6.82;;;;;;;-2.84;55.03;95258.75;5103118;28;20027;-78
2023/02/07 10:46:26;;;;;;;16.80;7.15;;;;;;;-2.89;55.05;95254.13;5102916;28;20066;-78
2023/02/07 10:48:51;;;;;;;18.75;8.02;;;;;;;-2.85;54.36;95246.69;5102958;28;20024;-78
2023/02/07 10:51:26;;;;;;;16.88;7.95;;;;;;;-2.85;55.26;95246.69;5101685;28;20038;-78
2023/02/07 10:54:11;;;;;;;20.67;8.40;;;;;;;-2.89;56.96;95250.69;5103025;28;20043;-78
2023/02/07 10:56:41;;;;;;;17.33;8.35;;;;;;;-2.85;56.87;95251.91;5102806;28;20027;-78
2023/02/07 10:59:39;;;;;;;19.73;8.18;;;;;;;-2.88;57.97;95239.28;5102947;28;20035;-78
2023/02/07 11:02:23;;;;;;;17.70;8.02;;;;;;;-2.85;58.19;95233.66;5102733;28;20024;-78
2023/02/07 11:04:49;;;;;;;18.40;8.52;;;;;;;-2.94;57.82;95227.00;5102799;28;20020;-78
2023/02/07 11:07:15;;;;;;;20.33;8.20;;;;;;;-2.86;56.14;95226.84;5102730;28;20031;-79
2023/02/07 11:09:40;;;;;;;16.02;7.47;;;;;;;-2.74;56.02;95222.66;5102458;28;20024;-78
2023/02/07 11:12:26;;;;;;;19.52;8.68;;;;;;;-2.66;56.72;95225.09;5102903;28;20094;-78
2023/02/07 11:15:03;;;;;;;14.20;7.40;;;;;;;-2.55;55.86;95220.28;5102789;28;20031;-78
2023/02/07 11:17:29;;;;;;;15.38;7.38;;;;;;;-2.35;54.27;95217.72;5102839;28;20031;-78
2023/02/07 11:19:55;;;;;;;15.18;7.05;;;;;;;-2.07;53.56;95214.94;5102586;28;20023;-78
2023/02/07 11:22:23;;;;;;;13.88;6.75;;;;;;;-2.00;52.54;95207.88;5102710;28;20020;-78
2023/02/07 11:24:52;;;;;;;18.00;7.00;;;;;;;-1.84;53.25;95209.28;5102418;28;20019;-78
2023/02/07 11:27:22;;;;;;;13.43;5.65;;;;;;;-1.66;50.71;95200.84;5102462;28;20023;-78
2023/02/07 11:29:53;;;;;;;15.63;6.68;;;;;;;-1.57;50.08;95199.59;5102554;28;20200;-78
2023/02/07 11:32:18;;;;;;;13.00;5.80;;;;;;;-1.39;51.76;95198.97;5102482;28;20023;-78
2023/02/07 11:35:00;;;;;;;18.25;7.68;;;;;;;-1.16;50.99;95201.13;5102386;28;20020;-78
2023/02/07 11:37:25;;;;;;;14.68;7.55;;;;;;;-0.92;50.04;95199.59;5105666;28;20225;-78